sensor_id;sensor_type;location;lat;lon;timestamp;temperature;humidity
46123;DHT22;31856;-35.404;149.120;2023-11-19T00:01:30;26.00;39.90
46123;DHT22;31856;-35.404;149.120;2023-11-19T00:03:59;26.20;39.50
46123;DHT22;31856;-35.404;149.120;2023-11-19T00:06:29;26.40;39.00
46123;DHT22;31856;-35.404;149.120;2023-11-19T00:08:59;26.50;37.70
46123;DHT22;31856;-35.404;149.120;2023-11-19T00:11:28;26.60;37.40
46123;DHT22;31856;-35.404;149.120;2023-11-19T00:13:58;26.80;36.40
46123;DHT22;31856;-35.404;149.120;2023-11-19T00:16:28;26.90;36.70
46123;DHT22;31856;-35.404;149.120;2023-11-19T01:17:04;29.30;30.10
46123;DHT22;31856;-35.404;149.120;2023-11-19T01:19:34;29.40;30.60
46123;DHT22;31856;-35.404;149.120;2023-11-19T01:22:03;29.50;30.30
46123;DHT22;31856;-35.404;149.120;2023-11-19T01:24:33;29.70;30.20
46123;DHT22;31856;-35.404;149.120;2023-11-19T01:27:03;29.70;28.70
46123;DHT22;31856;-35.404;149.120;2023-11-19T01:29:32;29.80;29.40
46123;DHT22;31856;-35.404;149.120;2023-11-19T01:32:02;30.00;29.10
46123;DHT22;31856;-35.404;149.120;2023-11-19T01:34:31;30.00;29.50
46123;DHT22;31856;-35.404;149.120;2023-11-19T01:37:01;30.00;28.10
46123;DHT22;31856;-35.404;149.120;2023-11-19T01:39:31;29.90;28.60
46123;DHT22;31856;-35.404;149.120;2023-11-19T01:42:00;29.80;27.70
46123;DHT22;31856;-35.404;149.120;2023-11-19T01:44:30;29.90;26.90
46123;DHT22;31856;-35.404;149.120;2023-11-19T01:47:00;29.80;27.10
46123;DHT22;31856;-35.404;149.120;2023-11-19T01:49:32;29.70;27.30
46123;DHT22;31856;-35.404;149.120;2023-11-19T01:52:02;29.90;27.30
46123;DHT22;31856;-35.404;149.120;2023-11-19T01:54:31;30.00;26.20
46123;DHT22;31856;-35.404;149.120;2023-11-19T01:57:02;30.10;26.80
46123;DHT22;31856;-35.404;149.120;2023-11-19T01:59:31;30.10;26.50
46123;DHT22;31856;-35.404;149.120;2023-11-19T02:02:01;30.10;26.20
46123;DHT22;31856;-35.404;149.120;2023-11-19T02:04:31;30.20;26.50
46123;DHT22;31856;-35.404;149.120;2023-11-19T02:07:02;30.40;26.80
46123;DHT22;31856;-35.404;149.120;2023-11-19T02:09:32;30.30;25.90
46123;DHT22;31856;-35.404;149.120;2023-11-19T02:12:01;30.30;25.50
46123;DHT22;31856;-35.404;149.120;2023-11-19T02:14:31;30.20;26.00
46123;DHT22;31856;-35.404;149.120;2023-11-19T02:17:01;30.20;25.90
46123;DHT22;31856;-35.404;149.120;2023-11-19T02:19:35;30.20;26.00
46123;DHT22;31856;-35.404;149.120;2023-11-19T02:22:05;30.20;26.20
46123;DHT22;31856;-35.404;149.120;2023-11-19T02:24:36;30.30;26.60
46123;DHT22;31856;-35.404;149.120;2023-11-19T02:27:08;30.50;26.90
46123;DHT22;31856;-35.404;149.120;2023-11-19T02:29:40;30.70;26.80
46123;DHT22;31856;-35.404;149.120;2023-11-19T02:32:09;30.90;25.90
46123;DHT22;31856;-35.404;149.120;2023-11-19T02:34:45;30.80;24.60
46123;DHT22;31856;-35.404;149.120;2023-11-19T02:37:17;30.60;24.70
46123;DHT22;31856;-35.404;149.120;2023-11-19T02:39:48;30.80;24.80
46123;DHT22;31856;-35.404;149.120;2023-11-19T02:42:18;30.80;24.90
46123;DHT22;31856;-35.404;149.120;2023-11-19T02:44:48;31.00;24.00
46123;DHT22;31856;-35.404;149.120;2023-11-19T02:47:17;30.70;24.90
46123;DHT22;31856;-35.404;149.120;2023-11-19T02:49:52;30.90;24.50
46123;DHT22;31856;-35.404;149.120;2023-11-19T02:52:22;30.90;25.20
46123;DHT22;31856;-35.404;149.120;2023-11-19T02:54:53;31.10;25.20
46123;DHT22;31856;-35.404;149.120;2023-11-19T02:57:23;31.00;25.40
46123;DHT22;31856;-35.404;149.120;2023-11-19T02:59:53;31.10;23.80
46123;DHT22;31856;-35.404;149.120;2023-11-19T03:02:28;31.10;24.80
46123;DHT22;31856;-35.404;149.120;2023-11-19T03:05:03;31.20;24.10
46123;DHT22;31856;-35.404;149.120;2023-11-19T03:07:32;30.90;24.80
46123;DHT22;31856;-35.404;149.120;2023-11-19T03:10:05;31.10;24.80
46123;DHT22;31856;-35.404;149.120;2023-11-19T03:12:41;31.10;23.70
46123;DHT22;31856;-35.404;149.120;2023-11-19T03:15:15;30.70;24.40
46123;DHT22;31856;-35.404;149.120;2023-11-19T03:17:45;30.70;24.90
46123;DHT22;31856;-35.404;149.120;2023-11-19T03:20:15;30.70;25.20
46123;DHT22;31856;-35.404;149.120;2023-11-19T03:22:45;30.90;25.40
46123;DHT22;31856;-35.404;149.120;2023-11-19T03:25:15;31.10;25.70
46123;DHT22;31856;-35.404;149.120;2023-11-19T03:27:45;31.40;24.60
46123;DHT22;31856;-35.404;149.120;2023-11-19T03:30:14;31.50;24.70
46123;DHT22;31856;-35.404;149.120;2023-11-19T03:32:46;31.50;23.70
46123;DHT22;31856;-35.404;149.120;2023-11-19T03:35:19;31.50;23.20
46123;DHT22;31856;-35.404;149.120;2023-11-19T03:37:49;31.40;23.10
46123;DHT22;31856;-35.404;149.120;2023-11-19T03:40:19;31.60;23.40
46123;DHT22;31856;-35.404;149.120;2023-11-19T03:42:51;31.60;22.70
46123;DHT22;31856;-35.404;149.120;2023-11-19T03:45:24;31.70;23.60
46123;DHT22;31856;-35.404;149.120;2023-11-19T03:47:54;31.70;23.50
46123;DHT22;31856;-35.404;149.120;2023-11-19T03:50:24;31.60;22.40
46123;DHT22;31856;-35.404;149.120;2023-11-19T03:52:53;31.20;22.90
46123;DHT22;31856;-35.404;149.120;2023-11-19T03:55:23;31.30;23.30
46123;DHT22;31856;-35.404;149.120;2023-11-19T03:57:53;31.20;23.40
46123;DHT22;31856;-35.404;149.120;2023-11-19T04:00:23;31.20;23.40
46123;DHT22;31856;-35.404;149.120;2023-11-19T04:02:53;31.60;23.30
46123;DHT22;31856;-35.404;149.120;2023-11-19T04:05:24;31.80;23.10
46123;DHT22;31856;-35.404;149.120;2023-11-19T04:07:54;32.00;23.00
46123;DHT22;31856;-35.404;149.120;2023-11-19T04:10:23;32.00;21.60
46123;DHT22;31856;-35.404;149.120;2023-11-19T04:12:53;32.10;19.80
46123;DHT22;31856;-35.404;149.120;2023-11-19T04:15:23;32.00;19.50
46123;DHT22;31856;-35.404;149.120;2023-11-19T04:17:52;31.80;21.30
46123;DHT22;31856;-35.404;149.120;2023-11-19T04:20:23;32.00;22.20
46123;DHT22;31856;-35.404;149.120;2023-11-19T04:22:53;32.10;22.30
46123;DHT22;31856;-35.404;149.120;2023-11-19T04:25:22;31.90;22.60
46123;DHT22;31856;-35.404;149.120;2023-11-19T04:27:54;31.90;21.90
46123;DHT22;31856;-35.404;149.120;2023-11-19T04:30:24;32.00;19.30
46123;DHT22;31856;-35.404;149.120;2023-11-19T04:32:54;32.00;20.00
46123;DHT22;31856;-35.404;149.120;2023-11-19T04:35:25;32.10;21.20
46123;DHT22;31856;-35.404;149.120;2023-11-19T04:37:55;31.90;21.30
46123;DHT22;31856;-35.404;149.120;2023-11-19T04:40:26;32.10;21.50
46123;DHT22;31856;-35.404;149.120;2023-11-19T04:42:56;32.10;20.60
46123;DHT22;31856;-35.404;149.120;2023-11-19T04:45:26;31.90;20.90
46123;DHT22;31856;-35.404;149.120;2023-11-19T04:47:56;32.00;21.20
46123;DHT22;31856;-35.404;149.120;2023-11-19T04:50:26;32.10;21.50
46123;DHT22;31856;-35.404;149.120;2023-11-19T04:52:56;32.20;21.30
46123;DHT22;31856;-35.404;149.120;2023-11-19T04:55:27;32.20;21.60
46123;DHT22;31856;-35.404;149.120;2023-11-19T04:57:58;32.00;21.00
46123;DHT22;31856;-35.404;149.120;2023-11-19T05:00:27;31.70;21.00
46123;DHT22;31856;-35.404;149.120;2023-11-19T05:02:57;31.70;21.20
46123;DHT22;31856;-35.404;149.120;2023-11-19T05:05:27;31.70;21.60
46123;DHT22;31856;-35.404;149.120;2023-11-19T05:07:56;31.60;21.50
46123;DHT22;31856;-35.404;149.120;2023-11-19T05:10:27;31.70;22.10
46123;DHT22;31856;-35.404;149.120;2023-11-19T05:12:57;31.70;21.20
46123;DHT22;31856;-35.404;149.120;2023-11-19T05:15:27;31.30;21.40
46123;DHT22;31856;-35.404;149.120;2023-11-19T05:17:57;31.20;21.80
46123;DHT22;31856;-35.404;149.120;2023-11-19T05:20:27;31.30;22.20
46123;DHT22;31856;-35.404;149.120;2023-11-19T05:22:56;31.30;22.80
46123;DHT22;31856;-35.404;149.120;2023-11-19T05:25:29;31.30;22.80
46123;DHT22;31856;-35.404;149.120;2023-11-19T05:27:59;31.50;23.10
46123;DHT22;31856;-35.404;149.120;2023-11-19T05:30:29;31.60;22.80
46123;DHT22;31856;-35.404;149.120;2023-11-19T05:32:59;31.40;23.10
46123;DHT22;31856;-35.404;149.120;2023-11-19T05:35:29;31.60;23.40
46123;DHT22;31856;-35.404;149.120;2023-11-19T05:37:59;31.70;23.40
46123;DHT22;31856;-35.404;149.120;2023-11-19T05:40:29;31.60;23.20
46123;DHT22;31856;-35.404;149.120;2023-11-19T05:42:59;31.30;23.40
46123;DHT22;31856;-35.404;149.120;2023-11-19T05:45:28;31.40;23.10
46123;DHT22;31856;-35.404;149.120;2023-11-19T05:47:58;31.30;23.50
46123;DHT22;31856;-35.404;149.120;2023-11-19T05:50:28;31.60;23.80
46123;DHT22;31856;-35.404;149.120;2023-11-19T05:52:58;31.70;23.40
46123;DHT22;31856;-35.404;149.120;2023-11-19T05:55:29;31.70;23.10
46123;DHT22;31856;-35.404;149.120;2023-11-19T05:57:59;31.70;23.50
46123;DHT22;31856;-35.404;149.120;2023-11-19T06:00:29;31.70;23.50
46123;DHT22;31856;-35.404;149.120;2023-11-19T06:02:59;31.70;23.30
46123;DHT22;31856;-35.404;149.120;2023-11-19T06:05:29;31.60;23.60
46123;DHT22;31856;-35.404;149.120;2023-11-19T06:08:01;31.40;23.70
46123;DHT22;31856;-35.404;149.120;2023-11-19T06:10:32;31.10;23.50
46123;DHT22;31856;-35.404;149.120;2023-11-19T06:13:02;30.80;24.00
46123;DHT22;31856;-35.404;149.120;2023-11-19T06:15:35;30.60;24.00
46123;DHT22;31856;-35.404;149.120;2023-11-19T06:18:05;30.30;24.30
46123;DHT22;31856;-35.404;149.120;2023-11-19T06:20:37;30.40;24.40
46123;DHT22;31856;-35.404;149.120;2023-11-19T06:23:11;30.40;24.60
46123;DHT22;31856;-35.404;149.120;2023-11-19T06:25:42;30.30;24.20
46123;DHT22;31856;-35.404;149.120;2023-11-19T06:28:12;30.30;24.50
46123;DHT22;31856;-35.404;149.120;2023-11-19T06:30:42;30.50;24.30
46123;DHT22;31856;-35.404;149.120;2023-11-19T06:33:15;30.80;23.60
46123;DHT22;31856;-35.404;149.120;2023-11-19T06:35:45;30.80;23.50
46123;DHT22;31856;-35.404;149.120;2023-11-19T06:38:14;30.90;23.50
46123;DHT22;31856;-35.404;149.120;2023-11-19T06:40:44;31.00;23.40
46123;DHT22;31856;-35.404;149.120;2023-11-19T07:21:15;30.50;23.70
46123;DHT22;31856;-35.404;149.120;2023-11-19T07:23:45;30.60;23.50
46123;DHT22;31856;-35.404;149.120;2023-11-19T07:26:15;30.50;23.20
46123;DHT22;31856;-35.404;149.120;2023-11-19T07:28:45;30.30;23.40
46123;DHT22;31856;-35.404;149.120;2023-11-19T07:31:15;30.20;23.30
46123;DHT22;31856;-35.404;149.120;2023-11-19T07:33:45;30.20;23.60
46123;DHT22;31856;-35.404;149.120;2023-11-19T07:36:16;30.20;23.90
46123;DHT22;31856;-35.404;149.120;2023-11-19T07:38:50;30.10;24.00
46123;DHT22;31856;-35.404;149.120;2023-11-19T07:41:20;30.00;23.50
46123;DHT22;31856;-35.404;149.120;2023-11-19T07:43:50;29.90;23.60
46123;DHT22;31856;-35.404;149.120;2023-11-19T07:46:25;29.80;24.10
46123;DHT22;31856;-35.404;149.120;2023-11-19T07:48:56;29.80;23.70
46123;DHT22;31856;-35.404;149.120;2023-11-19T07:51:26;29.60;23.70
46123;DHT22;31856;-35.404;149.120;2023-11-19T07:53:59;29.50;23.90
46123;DHT22;31856;-35.404;149.120;2023-11-19T07:56:28;29.50;24.30
46123;DHT22;31856;-35.404;149.120;2023-11-19T07:58:58;29.50;24.60
46123;DHT22;31856;-35.404;149.120;2023-11-19T08:01:27;29.40;24.60
46123;DHT22;31856;-35.404;149.120;2023-11-19T08:03:57;29.30;24.80
46123;DHT22;31856;-35.404;149.120;2023-11-19T08:06:27;29.20;25.10
46123;DHT22;31856;-35.404;149.120;2023-11-19T08:08:57;29.10;24.90
46123;DHT22;31856;-35.404;149.120;2023-11-19T08:11:28;28.90;24.90
46123;DHT22;31856;-35.404;149.120;2023-11-19T08:13:58;28.90;25.30
46123;DHT22;31856;-35.404;149.120;2023-11-19T08:16:27;28.80;25.50
46123;DHT22;31856;-35.404;149.120;2023-11-19T08:18:58;28.70;26.00
46123;DHT22;31856;-35.404;149.120;2023-11-19T08:21:28;28.60;26.00
46123;DHT22;31856;-35.404;149.120;2023-11-19T08:23:57;28.50;25.90
46123;DHT22;31856;-35.404;149.120;2023-11-19T08:26:27;28.40;26.20
46123;DHT22;31856;-35.404;149.120;2023-11-19T08:28:57;28.30;26.10
46123;DHT22;31856;-35.404;149.120;2023-11-19T08:31:27;28.20;26.60
46123;DHT22;31856;-35.404;149.120;2023-11-19T08:33:56;28.10;27.00
46123;DHT22;31856;-35.404;149.120;2023-11-19T08:36:29;27.90;27.50
46123;DHT22;31856;-35.404;149.120;2023-11-19T08:39:00;27.70;27.10
46123;DHT22;31856;-35.404;149.120;2023-11-19T08:41:30;27.70;27.40
46123;DHT22;31856;-35.404;149.120;2023-11-19T08:43:59;27.50;27.80
46123;DHT22;31856;-35.404;149.120;2023-11-19T08:46:29;27.40;27.80
46123;DHT22;31856;-35.404;149.120;2023-11-19T08:48:59;27.30;28.50
46123;DHT22;31856;-35.404;149.120;2023-11-19T08:51:29;27.30;28.80
46123;DHT22;31856;-35.404;149.120;2023-11-19T08:53:59;27.10;29.70
46123;DHT22;31856;-35.404;149.120;2023-11-19T08:56:30;27.00;29.60
46123;DHT22;31856;-35.404;149.120;2023-11-19T08:59:01;26.80;29.90
46123;DHT22;31856;-35.404;149.120;2023-11-19T09:01:34;26.70;30.30
46123;DHT22;31856;-35.404;149.120;2023-11-19T09:04:05;26.50;30.70
46123;DHT22;31856;-35.404;149.120;2023-11-19T09:06:35;26.40;31.30
46123;DHT22;31856;-35.404;149.120;2023-11-19T09:09:05;26.30;31.50
46123;DHT22;31856;-35.404;149.120;2023-11-19T09:11:35;26.20;31.70
46123;DHT22;31856;-35.404;149.120;2023-11-19T09:14:06;26.10;31.80
46123;DHT22;31856;-35.404;149.120;2023-11-19T09:16:39;26.00;32.10
46123;DHT22;31856;-35.404;149.120;2023-11-19T09:19:09;25.80;31.90
46123;DHT22;31856;-35.404;149.120;2023-11-19T09:21:38;25.80;32.30
46123;DHT22;31856;-35.404;149.120;2023-11-19T09:24:08;25.70;32.60
46123;DHT22;31856;-35.404;149.120;2023-11-19T09:26:41;25.60;33.20
46123;DHT22;31856;-35.404;149.120;2023-11-19T09:29:11;25.40;33.10
46123;DHT22;31856;-35.404;149.120;2023-11-19T09:31:43;25.40;33.30
46123;DHT22;31856;-35.404;149.120;2023-11-19T09:34:12;25.20;33.50
46123;DHT22;31856;-35.404;149.120;2023-11-19T10:11:10;24.10;35.70
46123;DHT22;31856;-35.404;149.120;2023-11-19T10:13:41;24.00;35.70
46123;DHT22;31856;-35.404;149.120;2023-11-19T10:16:14;23.90;35.80
46123;DHT22;31856;-35.404;149.120;2023-11-19T10:18:45;23.80;35.80
46123;DHT22;31856;-35.404;149.120;2023-11-19T10:21:15;23.70;35.70
46123;DHT22;31856;-35.404;149.120;2023-11-19T10:23:51;23.70;35.50
46123;DHT22;31856;-35.404;149.120;2023-11-19T10:26:21;23.60;35.80
46123;DHT22;31856;-35.404;149.120;2023-11-19T10:28:51;23.50;35.80
46123;DHT22;31856;-35.404;149.120;2023-11-19T10:31:20;23.50;36.20
46123;DHT22;31856;-35.404;149.120;2023-11-19T10:33:54;23.40;36.30
46123;DHT22;31856;-35.404;149.120;2023-11-19T10:36:46;23.30;36.60
46123;DHT22;31856;-35.404;149.120;2023-11-19T10:39:15;23.20;36.50
46123;DHT22;31856;-35.404;149.120;2023-11-19T10:41:46;23.20;36.60
46123;DHT22;31856;-35.404;149.120;2023-11-19T10:44:37;23.10;36.70
46123;DHT22;31856;-35.404;149.120;2023-11-19T10:47:07;23.10;36.70
46123;DHT22;31856;-35.404;149.120;2023-11-19T10:49:37;23.00;36.70
46123;DHT22;31856;-35.404;149.120;2023-11-19T10:52:08;22.90;36.70
46123;DHT22;31856;-35.404;149.120;2023-11-19T10:54:39;22.90;36.90
46123;DHT22;31856;-35.404;149.120;2023-11-19T10:57:12;22.80;37.10
46123;DHT22;31856;-35.404;149.120;2023-11-19T10:59:47;22.80;37.10
46123;DHT22;31856;-35.404;149.120;2023-11-19T11:02:19;22.70;37.30
46123;DHT22;31856;-35.404;149.120;2023-11-19T11:04:51;22.60;37.20
46123;DHT22;31856;-35.404;149.120;2023-11-19T11:07:21;22.60;37.30
46123;DHT22;31856;-35.404;149.120;2023-11-19T11:10:05;22.60;37.50
46123;DHT22;31856;-35.404;149.120;2023-11-19T11:44:58;21.70;39.90
46123;DHT22;31856;-35.404;149.120;2023-11-19T11:50:16;21.40;40.30
46123;DHT22;31856;-35.404;149.120;2023-11-19T11:55:26;21.40;39.80
46123;DHT22;31856;-35.404;149.120;2023-11-19T11:57:56;21.40;39.20
46123;DHT22;31856;-35.404;149.120;2023-11-19T12:00:30;21.50;38.60
46123;DHT22;31856;-35.404;149.120;2023-11-19T12:03:01;21.50;38.60
46123;DHT22;31856;-35.404;149.120;2023-11-19T12:05:31;21.50;38.30
46123;DHT22;31856;-35.404;149.120;2023-11-19T12:08:03;21.60;38.20
46123;DHT22;31856;-35.404;149.120;2023-11-19T12:10:48;21.70;38.50
46123;DHT22;31856;-35.404;149.120;2023-11-19T12:13:19;21.70;38.40
46123;DHT22;31856;-35.404;149.120;2023-11-19T12:18:26;21.80;38.90
46123;DHT22;31856;-35.404;149.120;2023-11-19T12:20:58;21.80;39.50
46123;DHT22;31856;-35.404;149.120;2023-11-19T12:23:30;21.80;39.30
46123;DHT22;31856;-35.404;149.120;2023-11-19T12:26:00;21.90;39.90
46123;DHT22;31856;-35.404;149.120;2023-11-19T12:28:30;21.90;39.70
46123;DHT22;31856;-35.404;149.120;2023-11-19T12:31:08;22.00;40.00
46123;DHT22;31856;-35.404;149.120;2023-11-19T12:33:38;22.00;40.50
46123;DHT22;31856;-35.404;149.120;2023-11-19T12:36:08;22.00;40.90
46123;DHT22;31856;-35.404;149.120;2023-11-19T12:38:37;22.10;41.10
46123;DHT22;31856;-35.404;149.120;2023-11-19T12:41:07;22.00;41.60
46123;DHT22;31856;-35.404;149.120;2023-11-19T13:29:18;21.40;43.00
46123;DHT22;31856;-35.404;149.120;2023-11-19T13:31:48;21.40;43.70
46123;DHT22;31856;-35.404;149.120;2023-11-19T13:34:18;21.40;43.80
46123;DHT22;31856;-35.404;149.120;2023-11-19T13:36:48;21.30;43.80
46123;DHT22;31856;-35.404;149.120;2023-11-19T13:39:17;21.30;44.50
46123;DHT22;31856;-35.404;149.120;2023-11-19T13:41:51;21.30;44.30
46123;DHT22;31856;-35.404;149.120;2023-11-19T13:44:39;21.30;44.50
46123;DHT22;31856;-35.404;149.120;2023-11-19T13:47:09;21.30;45.20
46123;DHT22;31856;-35.404;149.120;2023-11-19T13:49:39;21.30;44.90
46123;DHT22;31856;-35.404;149.120;2023-11-19T13:52:08;21.20;44.80
46123;DHT22;31856;-35.404;149.120;2023-11-19T13:54:38;21.30;44.90
46123;DHT22;31856;-35.404;149.120;2023-11-19T13:57:07;21.20;45.10
46123;DHT22;31856;-35.404;149.120;2023-11-19T13:59:41;21.20;45.50
46123;DHT22;31856;-35.404;149.120;2023-11-19T14:02:11;21.20;45.40
46123;DHT22;31856;-35.404;149.120;2023-11-19T14:04:40;21.20;45.50
46123;DHT22;31856;-35.404;149.120;2023-11-19T14:07:10;21.10;45.70
46123;DHT22;31856;-35.404;149.120;2023-11-19T14:09:41;21.20;45.80
46123;DHT22;31856;-35.404;149.120;2023-11-19T14:12:11;21.10;45.90
46123;DHT22;31856;-35.404;149.120;2023-11-19T14:14:41;21.10;45.70
46123;DHT22;31856;-35.404;149.120;2023-11-19T14:17:12;21.10;46.10
46123;DHT22;31856;-35.404;149.120;2023-11-19T14:19:42;21.10;46.30
46123;DHT22;31856;-35.404;149.120;2023-11-19T14:22:11;21.10;46.40
46123;DHT22;31856;-35.404;149.120;2023-11-19T14:24:42;21.10;46.40
46123;DHT22;31856;-35.404;149.120;2023-11-19T14:27:13;21.10;46.50
46123;DHT22;31856;-35.404;149.120;2023-11-19T14:29:43;21.10;46.50
46123;DHT22;31856;-35.404;149.120;2023-11-19T14:32:17;21.00;47.80
46123;DHT22;31856;-35.404;149.120;2023-11-19T14:34:46;21.00;47.80
46123;DHT22;31856;-35.404;149.120;2023-11-19T14:37:16;21.00;48.70
46123;DHT22;31856;-35.404;149.120;2023-11-19T14:39:46;21.00;49.00
46123;DHT22;31856;-35.404;149.120;2023-11-19T14:42:16;20.90;51.80
46123;DHT22;31856;-35.404;149.120;2023-11-19T14:44:46;20.90;51.20
46123;DHT22;31856;-35.404;149.120;2023-11-19T14:47:15;20.90;50.60
46123;DHT22;31856;-35.404;149.120;2023-11-19T14:49:45;20.80;50.30
46123;DHT22;31856;-35.404;149.120;2023-11-19T14:52:15;20.80;50.70
46123;DHT22;31856;-35.404;149.120;2023-11-19T14:54:44;20.80;51.50
46123;DHT22;31856;-35.404;149.120;2023-11-19T15:16:23;20.60;52.10
46123;DHT22;31856;-35.404;149.120;2023-11-19T15:19:01;20.50;52.60
46123;DHT22;31856;-35.404;149.120;2023-11-19T15:21:34;20.50;53.10
46123;DHT22;31856;-35.404;149.120;2023-11-19T15:24:03;20.50;53.30
46123;DHT22;31856;-35.404;149.120;2023-11-19T15:26:36;20.30;53.80
46123;DHT22;31856;-35.404;149.120;2023-11-19T15:29:06;20.30;52.60
46123;DHT22;31856;-35.404;149.120;2023-11-19T15:31:36;20.30;51.80
46123;DHT22;31856;-35.404;149.120;2023-11-19T15:34:05;20.30;51.60
46123;DHT22;31856;-35.404;149.120;2023-11-19T15:36:35;20.30;50.20
46123;DHT22;31856;-35.404;149.120;2023-11-19T15:39:05;20.20;49.60
46123;DHT22;31856;-35.404;149.120;2023-11-19T15:41:35;20.10;48.50
46123;DHT22;31856;-35.404;149.120;2023-11-19T15:44:04;20.10;48.80
46123;DHT22;31856;-35.404;149.120;2023-11-19T15:46:34;20.10;48.70
46123;DHT22;31856;-35.404;149.120;2023-11-19T15:49:04;20.00;49.10
46123;DHT22;31856;-35.404;149.120;2023-11-19T15:51:33;20.00;49.20
46123;DHT22;31856;-35.404;149.120;2023-11-19T15:54:03;19.90;49.20
46123;DHT22;31856;-35.404;149.120;2023-11-19T15:56:34;19.90;49.70
46123;DHT22;31856;-35.404;149.120;2023-11-19T15:59:03;19.80;49.50
46123;DHT22;31856;-35.404;149.120;2023-11-19T16:01:36;19.80;49.80
46123;DHT22;31856;-35.404;149.120;2023-11-19T16:04:06;19.80;50.10
46123;DHT22;31856;-35.404;149.120;2023-11-19T16:06:38;19.70;50.40
46123;DHT22;31856;-35.404;149.120;2023-11-19T16:09:08;19.70;50.10
46123;DHT22;31856;-35.404;149.120;2023-11-19T16:11:45;19.70;49.90
46123;DHT22;31856;-35.404;149.120;2023-11-19T17:00:32;19.00;52.00
46123;DHT22;31856;-35.404;149.120;2023-11-19T17:03:01;19.00;52.10
46123;DHT22;31856;-35.404;149.120;2023-11-19T17:05:31;18.90;52.50
46123;DHT22;31856;-35.404;149.120;2023-11-19T17:08:04;18.80;52.00
46123;DHT22;31856;-35.404;149.120;2023-11-19T17:10:34;18.80;52.60
46123;DHT22;31856;-35.404;149.120;2023-11-19T17:13:04;18.80;52.50
46123;DHT22;31856;-35.404;149.120;2023-11-19T17:15:33;18.80;53.40
46123;DHT22;31856;-35.404;149.120;2023-11-19T17:18:04;18.70;53.60
46123;DHT22;31856;-35.404;149.120;2023-11-19T17:20:33;18.70;53.10
46123;DHT22;31856;-35.404;149.120;2023-11-19T17:23:05;18.60;53.50
46123;DHT22;31856;-35.404;149.120;2023-11-19T17:25:37;18.60;53.50
46123;DHT22;31856;-35.404;149.120;2023-11-19T17:28:09;18.60;53.40
46123;DHT22;31856;-35.404;149.120;2023-11-19T17:30:39;18.60;53.20
46123;DHT22;31856;-35.404;149.120;2023-11-19T17:33:10;18.60;53.70
46123;DHT22;31856;-35.404;149.120;2023-11-19T17:35:40;18.60;53.80
46123;DHT22;31856;-35.404;149.120;2023-11-19T17:38:09;18.60;53.60
46123;DHT22;31856;-35.404;149.120;2023-11-19T17:40:42;18.50;54.00
46123;DHT22;31856;-35.404;149.120;2023-11-19T17:43:11;18.60;54.50
46123;DHT22;31856;-35.404;149.120;2023-11-19T17:45:41;18.50;54.90
46123;DHT22;31856;-35.404;149.120;2023-11-19T17:48:10;18.50;55.20
46123;DHT22;31856;-35.404;149.120;2023-11-19T17:50:41;18.50;54.90
46123;DHT22;31856;-35.404;149.120;2023-11-19T17:53:12;18.40;55.30
46123;DHT22;31856;-35.404;149.120;2023-11-19T17:55:41;18.30;55.40
46123;DHT22;31856;-35.404;149.120;2023-11-19T17:58:11;18.40;55.10
